📊 Raw Sensor Data
Showing records 50426 to 50450 of 85,133 total
| ID | Distance (ft) | Battery V | Battery A | Int Temp (°F) | Int Humid (%) | Ext Temp (°F) | Solar V | RSSI | SNR | Time Stamp |
|---|---|---|---|---|---|---|---|---|---|---|
| 34720 | 15.4 | 3.95 | -5 | 50 | 40 | 51 | 0.00 | -74 | 8 | 03/11/2025 09:45 PM |
| 34719 | 15.3 | 3.95 | -5 | 50 | 40 | 51 | 0.00 | -74 | 8 | 03/11/2025 09:30 PM |
| 34718 | 15.4 | 3.96 | -5 | 51 | 40 | 52 | 0.00 | -74 | 8 | 03/11/2025 09:15 PM |
| 34717 | 15.4 | 3.96 | -5 | 51 | 40 | 52 | 0.00 | -74 | 8 | 03/11/2025 09:00 PM |
| 34716 | -- | 4.01 | -5 | 52 | 41 | 53 | 0.00 | -74 | 7 | 03/11/2025 08:45 PM |
| 34715 | 15.3 | 3.96 | -5 | 52 | 41 | 53 | 0.00 | -74 | 8 | 03/11/2025 08:30 PM |
| 34714 | 15.4 | 3.96 | -24 | 53 | 41 | 54 | 0.10 | -74 | 8 | 03/11/2025 08:15 PM |
| 34713 | 15.4 | 4.01 | -5 | 54 | 42 | 54 | 0.00 | -74 | 8 | 03/11/2025 08:00 PM |
| 34712 | 15.4 | 3.96 | -5 | 54 | 42 | 55 | 0.00 | -73 | 9 | 03/11/2025 07:46 PM |
| 34711 | 15.4 | 3.96 | -5 | 55 | 43 | 55 | 0.00 | -73 | 8 | 03/11/2025 07:30 PM |
| 34710 | -- | 4.01 | -9 | 57 | 44 | 56 | 3.30 | -72 | 7 | 03/11/2025 07:16 PM |
| 34709 | 15.4 | 4.03 | 0 | 59 | 43 | 57 | 4.50 | -73 | 7 | 03/11/2025 07:00 PM |
| 34708 | 15.4 | 4.05 | 0 | 61 | 43 | 58 | 4.50 | -72 | 7 | 03/11/2025 06:45 PM |
| 34707 | 15.4 | 4.03 | 25 | 64 | 42 | 59 | 4.60 | -73 | 8 | 03/11/2025 06:30 PM |
| 34706 | -- | 4.01 | 5 | 67 | 42 | 61 | 5.10 | -73 | 8 | 03/11/2025 06:15 PM |
| 34705 | 15.5 | 4.01 | 5 | 70 | 40 | 63 | 5.10 | -74 | 8 | 03/11/2025 06:00 PM |
| 34704 | 15.5 | 4.01 | 0 | 71 | 40 | 64 | 5.10 | -74 | 8 | 03/11/2025 05:45 PM |
| 34703 | -- | 4.01 | 0 | 71 | 40 | 64 | 5.10 | -75 | 9 | 03/11/2025 05:30 PM |
| 34702 | -- | 4.01 | 5 | 71 | 40 | 64 | 5.10 | -75 | 8 | 03/11/2025 05:15 PM |
| 34701 | -- | 4.01 | 6 | 72 | 40 | 65 | 5.10 | -74 | 9 | 03/11/2025 05:00 PM |
| 34700 | -- | 4.01 | 0 | 75 | 39 | 66 | 5.10 | -74 | 8 | 03/11/2025 04:45 PM |
| 34699 | -- | 4.01 | 0 | 75 | 39 | 67 | 5.10 | -74 | 9 | 03/11/2025 04:30 PM |
| 34698 | -- | 4.01 | 5 | 77 | 38 | 68 | 5.10 | -75 | 8 | 03/11/2025 04:15 PM |
| 34697 | 15.6 | 4.01 | 5 | 76 | 38 | 68 | 5.10 | -75 | 9 | 03/11/2025 04:00 PM |
| 34696 | 15.6 | 4.02 | 5 | 77 | 38 | 66 | 5.10 | -73 | 7 | 03/11/2025 03:45 PM |